Cape Sakura — 7JHZ — position and weather

sailwx.info

Track history (hours):
 
Tides and Currents Weather Stations Pressure Air Temp Water Temp Dewpoint Dewpoint Depression Visibility Wind Speed Wind Dir Waves Ship Positions

Cape Sakura

Last reported at 2014-Aug-11 15:19 UTC. Time now 2014-Aug-21 16:09 UTC.
Position S 27°42' E 154°04'.
Warning: this ship's position is 10 days out of date.

Length 292 m; draft 15.7 m.

Type: Cargo ship. MMSI: 432786000.

Date/timePositionNaut miles runAvg speedWind from/ knotsBaromVisibWave heightAir tempDewpointWater temp
2014-Aug-11 15:19S 27°42' E 154°04'28711.9
2014-Aug-10 15:15S 32°22' E 152°48'911.5
2014-Aug-10 14:29S 32°31' E 152°45'1112.0
2014-Aug-10 13:33S 32°38' E 152°34'1212.2
2014-Aug-10 12:33S 32°45' E 152°23'1212.0
2014-Aug-10 11:33S 32°52' E 152°11'1212.0
2014-Aug-10 10:33S 32°56' E 151°58'8 8.1
2014-Aug-10 09:33S 32°55' E 151°48'3 2.7
2014-Aug-10 08:33S 32°53' E 151°46'0 0.1
2014-Aug-10 07:33S 32°53' E 151°46'0 0.0
2014-Aug-10 06:33S 32°53' E 151°46'0 0.0
2014-Aug-10 05:33S 32°53' E 151°46'0 0.0
2014-Aug-10 04:33S 32°53' E 151°46'0 0.0
2014-Aug-10 03:33S 32°53' E 151°46'0 0.0
2014-Aug-10 02:33S 32°53' E 151°46'0 0.0
2014-Aug-10 01:33S 32°53' E 151°46'0 0.0
2014-Aug-10 00:33S 32°53' E 151°46'0 0.0
2014-Aug-09 23:33S 32°53' E 151°46'0 0.0
2014-Aug-09 22:27S 32°53' E 151°46'0 0.0
2014-Aug-09 21:33S 32°53' E 151°46'0 0.0
2014-Aug-09 20:33S 32°53' E 151°46'0 0.0
2014-Aug-09 19:33S 32°53' E 151°46'0 0.0
2014-Aug-09 18:33S 32°53' E 151°46'0 0.0
2014-Aug-09 17:33S 32°53' E 151°46'0 0.0
2014-Aug-09 16:33S 32°53' E 151°46'0 0.0
2014-Aug-09 15:33S 32°53' E 151°46'0 0.0
2014-Aug-09 14:30S 32°53' E 151°46'0 0.0
2014-Aug-09 13:33S 32°53' E 151°46'0 0.0
2014-Aug-09 12:33S 32°53' E 151°46'0 0.0
2014-Aug-09 11:33S 32°53' E 151°46'0 0.0
2014-Aug-09 10:33S 32°53' E 151°46'0 0.0
2014-Aug-09 09:33S 32°53' E 151°46'0 0.0
2014-Aug-09 08:33S 32°53' E 151°46'0 0.0
2014-Aug-09 07:33S 32°53' E 151°46'0 0.0
2014-Aug-09 06:33S 32°53' E 151°46'1 0.9
2014-Aug-09 05:33S 32°54' E 151°46'6 5.7
2014-Aug-09 04:33S 32°57' E 151°51'1010.0
2014-Aug-09 03:33S 33°07' E 151°56'1 1.3
2014-Aug-09 02:32S 33°08' E 151°57'0 0.1
2014-Aug-09 01:32S 33°08' E 151°57'0 0.4
2014-Aug-09 00:29S 33°07' E 151°56'0 0.3
2014-Aug-08 23:32S 33°07' E 151°56'0 0.3
2014-Aug-08 22:29S 33°07' E 151°56'0 0.3
2014-Aug-08 21:32S 33°07' E 151°56'0 0.3
2014-Aug-08 20:32S 33°07' E 151°55'1 1.0
2014-Aug-08 19:32S 33°07' E 151°54'5 5.2
2014-Aug-08 18:33S 33°11' E 151°50'  
2014-Aug-06 11:28S 33°15' E 151°41'0 0.0
2014-Aug-06 10:31S 33°15' E 151°41'0 0.0
2014-Aug-06 09:28S 33°15' E 151°41'1 0.3
2014-Aug-06 06:33S 33°16' E 151°41'9 8.0
2014-Aug-06 05:23S 33°12' E 151°51'1215.1
2014-Aug-06 04:33S 33°07' E 152°05'1414.3
2014-Aug-06 03:33S 33°03' E 152°21'1111.3
2014-Aug-06 02:33S 32°57' E 152°33'1212.0
2014-Aug-06 01:33S 32°46' E 152°40'1312.6
2014-Aug-06 00:33S 32°35' E 152°47'5 4.5
2014-Aug-05 23:32S 32°32' E 152°51'0 0.3
2014-Aug-05 22:32S 32°32' E 152°51'1 0.5
2014-Aug-05 21:26S 32°32' E 152°52'1 0.6
2014-Aug-05 20:14S 32°33' E 152°53'1 0.9
2014-Aug-05 19:32S 32°33' E 152°53'1 1.1
2014-Aug-05 18:29S 32°33' E 152°55'1 1.5
2014-Aug-05 17:32S 32°32' E 152°56'2 1.8
2014-Aug-05 16:32S 32°32' E 152°58'2 2.0
2014-Aug-05 15:32S 32°32' E 153°01'  
2014-Aug-03 03:34S 27°49' E 154°04'1212.3
2014-Aug-03 02:33S 27°37' E 154°04'1412.0
2014-Aug-03 01:24S 27°23' E 154°04'1312.3
2014-Aug-03 00:22S 27°10' E 154°04'  
Track history (hours):
 
Tides and Currents Weather Stations Pressure Air Temp Water Temp Dewpoint Dewpoint Depression Visibility Wind Speed Wind Dir Waves Ship Positions

Cape Sakura

Last reported at 2014-Aug-11 15:19 UTC. Time now 2014-Aug-21 16:09 UTC.
Position S 27°42' E 154°04'.
Warning: this ship's position is 10 days out of date.

Length 292 m; draft 15.7 m.

Type: Cargo ship. MMSI: 432786000.

Date/timePositionNaut miles runAvg speedWind from/ knotsBaromVisibWave heightAir tempDewpointWater temp
2014-Aug-11 15:19S 27°42' E 154°04'28711.9
2014-Aug-10 15:15S 32°22' E 152°48'911.5
2014-Aug-10 14:29S 32°31' E 152°45'1112.0
2014-Aug-10 13:33S 32°38' E 152°34'1212.2
2014-Aug-10 12:33S 32°45' E 152°23'1212.0
2014-Aug-10 11:33S 32°52' E 152°11'1212.0
2014-Aug-10 10:33S 32°56' E 151°58'8 8.1
2014-Aug-10 09:33S 32°55' E 151°48'3 2.7
2014-Aug-10 08:33S 32°53' E 151°46'0 0.1
2014-Aug-10 07:33S 32°53' E 151°46'0 0.0
2014-Aug-10 06:33S 32°53' E 151°46'0 0.0
2014-Aug-10 05:33S 32°53' E 151°46'0 0.0
2014-Aug-10 04:33S 32°53' E 151°46'0 0.0
2014-Aug-10 03:33S 32°53' E 151°46'0 0.0
2014-Aug-10 02:33S 32°53' E 151°46'0 0.0
2014-Aug-10 01:33S 32°53' E 151°46'0 0.0
2014-Aug-10 00:33S 32°53' E 151°46'0 0.0
2014-Aug-09 23:33S 32°53' E 151°46'0 0.0
2014-Aug-09 22:27S 32°53' E 151°46'0 0.0
2014-Aug-09 21:33S 32°53' E 151°46'0 0.0
2014-Aug-09 20:33S 32°53' E 151°46'0 0.0
2014-Aug-09 19:33S 32°53' E 151°46'0 0.0
2014-Aug-09 18:33S 32°53' E 151°46'0 0.0
2014-Aug-09 17:33S 32°53' E 151°46'0 0.0
2014-Aug-09 16:33S 32°53' E 151°46'0 0.0
2014-Aug-09 15:33S 32°53' E 151°46'0 0.0
2014-Aug-09 14:30S 32°53' E 151°46'0 0.0
2014-Aug-09 13:33S 32°53' E 151°46'0 0.0
2014-Aug-09 12:33S 32°53' E 151°46'0 0.0
2014-Aug-09 11:33S 32°53' E 151°46'0 0.0
2014-Aug-09 10:33S 32°53' E 151°46'0 0.0
2014-Aug-09 09:33S 32°53' E 151°46'0 0.0
2014-Aug-09 08:33S 32°53' E 151°46'0 0.0
2014-Aug-09 07:33S 32°53' E 151°46'0 0.0
2014-Aug-09 06:33S 32°53' E 151°46'1 0.9
2014-Aug-09 05:33S 32°54' E 151°46'6 5.7
2014-Aug-09 04:33S 32°57' E 151°51'1010.0
2014-Aug-09 03:33S 33°07' E 151°56'1 1.3
2014-Aug-09 02:32S 33°08' E 151°57'0 0.1
2014-Aug-09 01:32S 33°08' E 151°57'0 0.4
2014-Aug-09 00:29S 33°07' E 151°56'0 0.3
2014-Aug-08 23:32S 33°07' E 151°56'0 0.3
2014-Aug-08 22:29S 33°07' E 151°56'0 0.3
2014-Aug-08 21:32S 33°07' E 151°56'0 0.3
2014-Aug-08 20:32S 33°07' E 151°55'1 1.0
2014-Aug-08 19:32S 33°07' E 151°54'5 5.2
2014-Aug-08 18:33S 33°11' E 151°50'  
2014-Aug-06 11:28S 33°15' E 151°41'0 0.0
2014-Aug-06 10:31S 33°15' E 151°41'0 0.0
2014-Aug-06 09:28S 33°15' E 151°41'1 0.3
2014-Aug-06 06:33S 33°16' E 151°41'9 8.0
2014-Aug-06 05:23S 33°12' E 151°51'1215.1
2014-Aug-06 04:33S 33°07' E 152°05'1414.3
2014-Aug-06 03:33S 33°03' E 152°21'1111.3
2014-Aug-06 02:33S 32°57' E 152°33'1212.0
2014-Aug-06 01:33S 32°46' E 152°40'1312.6
2014-Aug-06 00:33S 32°35' E 152°47'5 4.5
2014-Aug-05 23:32S 32°32' E 152°51'0 0.3
2014-Aug-05 22:32S 32°32' E 152°51'1 0.5
2014-Aug-05 21:26S 32°32' E 152°52'1 0.6
2014-Aug-05 20:14S 32°33' E 152°53'1 0.9
2014-Aug-05 19:32S 32°33' E 152°53'1 1.1
2014-Aug-05 18:29S 32°33' E 152°55'1 1.5
2014-Aug-05 17:32S 32°32' E 152°56'2 1.8
2014-Aug-05 16:32S 32°32' E 152°58'2 2.0
2014-Aug-05 15:32S 32°32' E 153°01'  
2014-Aug-03 03:34S 27°49' E 154°04'1212.3
2014-Aug-03 02:33S 27°37' E 154°04'1412.0
2014-Aug-03 01:24S 27°23' E 154°04'1312.3
2014-Aug-03 00:22S 27°10' E 154°04'  

Dump ship's entire track history